Time;durP1;ratioP1;P1;durP2;ratioP2;P2;SDS_P1;SDS_P2;PMS_P1;PMS_P2;Temp;Humidity;BMP_temperature;BMP_pressure;BME280_temperature;BME280_humidity;BME280_pressure;Samples;Min_cycle;Max_cycle;Signal;HPM_P1;HPM_P2
2023/01/02 00:01:02;;;;;;;0.70;0.70;;;;;;;;;;4972670;28;20305;-75
2023/01/02 00:03:28;;;;;;;0.60;0.60;;;;;;;;;;4972156;28;20177;-76
2023/01/02 00:05:54;;;;;;;0.60;0.60;;;;;;;;;;4972713;28;20185;-76
2023/01/02 00:08:20;;;;;;;0.70;0.70;;;;;;;;;;4972419;28;20274;-76
2023/01/02 00:10:46;;;;;;;0.60;0.60;;;;;;;;;;4972140;28;20222;-76
2023/01/02 00:13:14;;;;;;;0.77;0.77;;;;;;;;;;4971579;28;20177;-76
2023/01/02 00:15:40;;;;;;;0.70;0.70;;;;;;;;;;4972132;28;20289;-76
2023/01/02 00:18:06;;;;;;;0.70;0.70;;;;;;;;;;4972135;28;20265;-76
2023/01/02 00:20:32;;;;;;;0.70;0.70;;;;;;;;;;4971831;28;20209;-76
2023/01/02 00:22:58;;;;;;;0.70;0.70;;;;;;;;;;4971472;28;20606;-76
2023/01/02 00:25:24;;;;;;;0.70;0.70;;;;;;;;;;4972008;28;20175;-77
2023/01/02 00:27:50;;;;;;;0.80;0.80;;;;;;;;;;4972079;28;20182;-77
2023/01/02 00:30:16;;;;;;;0.70;0.70;;;;;;;;;;4977951;28;20618;-76
2023/01/02 00:32:42;;;;;;;0.70;0.70;;;;;;;;;;4979855;28;20212;-76
2023/01/02 00:35:08;;;;;;;0.70;0.70;;;;;;;;;;4979847;28;20189;-76
2023/01/02 00:37:34;;;;;;;0.63;0.63;;;;;;;;;;4979632;28;20178;-76
2023/01/02 00:40:00;;;;;;;0.67;0.67;;;;;;;;;;4978738;28;20186;-76
2023/01/02 00:42:26;;;;;;;0.70;0.70;;;;;;;;;;4978130;28;20221;-76
2023/01/02 00:44:52;;;;;;;0.70;0.70;;;;;;;;;;4979147;28;20177;-75
2023/01/02 00:47:18;;;;;;;0.70;0.70;;;;;;;;;;4982265;28;20276;-76
2023/01/02 00:49:44;;;;;;;0.70;0.70;;;;;;;;;;4981967;28;20188;-76
2023/01/02 00:52:10;;;;;;;0.70;0.70;;;;;;;;;;4975446;28;20616;-75
2023/01/02 00:54:36;;;;;;;0.63;0.63;;;;;;;;;;4974865;28;20646;-77
2023/01/02 00:57:02;;;;;;;0.70;0.70;;;;;;;;;;4975480;28;20174;-77
2023/01/02 00:59:28;;;;;;;0.70;0.70;;;;;;;;;;4976854;28;20186;-76
2023/01/02 01:01:54;;;;;;;0.70;0.70;;;;;;;;;;4976373;28;20210;-77
2023/01/02 01:04:19;;;;;;;0.70;0.70;;;;;;;;;;4975215;28;20181;-76
2023/01/02 01:06:45;;;;;;;0.60;0.60;;;;;;;;;;4975363;28;20336;-76
2023/01/02 01:09:12;;;;;;;0.70;0.70;;;;;;;;;;4975044;28;20174;-76
2023/01/02 01:11:38;;;;;;;0.80;0.80;;;;;;;;;;4974822;28;20208;-77
2023/01/02 01:14:04;;;;;;;0.80;0.80;;;;;;;;;;4974280;28;20182;-77
2023/01/02 01:16:30;;;;;;;0.70;0.70;;;;;;;;;;4974584;28;20182;-76
2023/01/02 01:18:56;;;;;;;0.70;0.70;;;;;;;;;;4974640;28;20189;-76
2023/01/02 01:21:23;;;;;;;0.70;0.70;;;;;;;;;;4974445;28;20636;-76
2023/01/02 01:23:52;;;;;;;0.77;0.77;;;;;;;;;;4974077;28;20548;-76
2023/01/02 01:26:19;;;;;;;0.70;0.70;;;;;;;;;;4974444;28;20225;-76
2023/01/02 01:28:45;;;;;;;0.70;0.70;;;;;;;;;;4974379;28;20666;-76
2023/01/02 01:31:12;;;;;;;0.70;0.70;;;;;;;;;;4974354;28;20212;-76
2023/01/02 01:33:39;;;;;;;0.70;0.70;;;;;;;;;;4974119;28;20209;-75
2023/01/02 01:36:07;;;;;;;0.80;0.80;;;;;;;;;;4974800;28;20182;-75
2023/01/02 01:38:33;;;;;;;0.70;0.70;;;;;;;;;;4974362;28;20174;-76
2023/01/02 01:40:59;;;;;;;0.70;0.70;;;;;;;;;;4974105;28;20224;-76
2023/01/02 01:43:42;;;;;;;0.70;0.70;;;;;;;;;;4973681;28;20185;-76
2023/01/02 01:46:27;;;;;;;0.70;0.70;;;;;;;;;;4974324;28;20503;-76
2023/01/02 01:48:59;;;;;;;0.60;0.60;;;;;;;;;;4974342;28;20196;-76
2023/01/02 01:51:27;;;;;;;0.60;0.60;;;;;;;;;;4974183;28;20229;-76
2023/01/02 01:53:56;;;;;;;0.80;0.80;;;;;;;;;;4973524;28;20178;-76
2023/01/02 01:56:22;;;;;;;0.80;0.80;;;;;;;;;;4973162;28;20320;-76
2023/01/02 01:58:49;;;;;;;0.70;0.70;;;;;;;;;;4974151;28;20706;-76
2023/01/02 02:01:16;;;;;;;0.70;0.70;;;;;;;;;;4974013;28;20592;-76
2023/01/02 02:03:43;;;;;;;0.63;0.63;;;;;;;;;;4973758;28;20173;-77
2023/01/02 02:06:10;;;;;;;0.60;0.60;;;;;;;;;;4973932;28;20178;-76
2023/01/02 02:08:51;;;;;;;0.70;0.70;;;;;;;;;;4973847;28;20285;-76
2023/01/02 02:11:17;;;;;;;0.70;0.70;;;;;;;;;;4973790;28;20666;-75
2023/01/02 02:13:43;;;;;;;0.70;0.70;;;;;;;;;;4973407;28;20646;-76
2023/01/02 02:16:18;;;;;;;0.60;0.60;;;;;;;;;;4973893;28;20178;-77
2023/01/02 02:19:02;;;;;;;0.60;0.60;;;;;;;;;;4973723;28;20272;-77
2023/01/02 02:21:47;;;;;;;0.70;0.70;;;;;;;;;;4973462;28;20251;-77
2023/01/02 02:24:32;;;;;;;0.70;0.70;;;;;;;;;;4973088;28;20174;-77
2023/01/02 02:27:01;;;;;;;0.57;0.57;;;;;;;;;;4973589;28;20186;-77
2023/01/02 02:29:30;;;;;;;0.73;0.73;;;;;;;;;;4972294;28;20178;-77
2023/01/02 02:31:59;;;;;;;0.60;0.60;;;;;;;;;;4973342;28;20212;-77
2023/01/02 02:34:31;;;;;;;0.70;0.70;;;;;;;;;;4973082;28;20197;-77
2023/01/02 02:37:00;;;;;;;0.70;0.70;;;;;;;;;;4973634;28;20186;-77
2023/01/02 02:39:26;;;;;;;0.67;0.67;;;;;;;;;;4973407;28;20719;-77
2023/01/02 02:41:58;;;;;;;0.70;0.70;;;;;;;;;;4975244;28;20360;-76
2023/01/02 02:44:24;;;;;;;0.70;0.70;;;;;;;;;;4974872;28;20189;-76
2023/01/02 02:47:05;;;;;;;0.73;0.73;;;;;;;;;;4974592;28;20277;-76
2023/01/02 02:49:34;;;;;;;0.70;0.70;;;;;;;;;;4973084;28;20182;-76
2023/01/02 02:52:03;;;;;;;0.73;0.73;;;;;;;;;;4973024;28;20197;-77
2023/01/02 02:54:35;;;;;;;0.60;0.60;;;;;;;;;;4972623;28;20256;-76
2023/01/02 02:57:02;;;;;;;0.60;0.60;;;;;;;;;;4973208;28;20693;-76
2023/01/02 02:59:29;;;;;;;0.70;0.70;;;;;;;;;;4973309;28;20208;-74
2023/01/02 03:01:54;;;;;;;0.60;0.60;;;;;;;;;;4972918;28;20214;-75
2023/01/02 03:04:22;;;;;;;0.70;0.70;;;;;;;;;;4972525;28;20196;-75
2023/01/02 03:06:54;;;;;;;0.80;0.80;;;;;;;;;;4973219;28;20216;-76
2023/01/02 03:09:43;;;;;;;0.63;0.63;;;;;;;;;;4972910;28;20550;-76
2023/01/02 03:12:39;;;;;;;0.80;0.80;;;;;;;;;;4973127;28;20204;-75
2023/01/02 03:15:08;;;;;;;0.70;0.70;;;;;;;;;;4960595;28;20190;-75
2023/01/02 03:17:52;;;;;;;0.60;0.60;;;;;;;;;;4973306;28;20223;-76
2023/01/02 03:20:21;;;;;;;0.70;0.70;;;;;;;;;;4973170;28;20197;-76
2023/01/02 03:22:50;;;;;;;0.70;0.70;;;;;;;;;;4972907;28;20226;-76
2023/01/02 03:25:16;;;;;;;0.70;0.70;;;;;;;;;;4973346;28;20178;-77
2023/01/02 03:27:44;;;;;;;0.70;0.70;;;;;;;;;;4973100;28;20201;-77
2023/01/02 03:30:12;;;;;;;0.77;0.77;;;;;;;;;;4973327;28;20181;-76
2023/01/02 03:32:42;;;;;;;0.80;0.80;;;;;;;;;;4972562;28;20185;-75
2023/01/02 03:35:10;;;;;;;0.70;0.70;;;;;;;;;;4973005;28;20196;-76
2023/01/02 03:37:39;;;;;;;0.70;0.70;;;;;;;;;;4972912;28;20668;-75
2023/01/02 03:40:11;;;;;;;0.70;0.70;;;;;;;;;;4972557;28;20208;-77
2023/01/02 03:42:51;;;;;;;0.70;0.70;;;;;;;;;;4972176;28;20260;-77
2023/01/02 03:45:46;;;;;;;0.70;0.70;;;;;;;;;;4972800;28;20209;-76
2023/01/02 03:48:31;;;;;;;0.80;0.80;;;;;;;;;;4959837;28;20225;-76
2023/01/02 03:50:58;;;;;;;0.70;0.70;;;;;;;;;;4972556;28;20198;-76
2023/01/02 03:53:25;;;;;;;0.70;0.70;;;;;;;;;;4972014;28;20177;-75
2023/01/02 03:56:03;;;;;;;0.70;0.70;;;;;;;;;;4972499;28;20252;-75
2023/01/02 03:58:39;;;;;;;0.70;0.70;;;;;;;;;;4972162;28;20269;-76
2023/01/02 04:01:09;;;;;;;0.60;0.60;;;;;;;;;;4971868;28;20910;-76
2023/01/02 04:03:49;;;;;;;0.80;0.80;;;;;;;;;;4971877;28;20261;-76
2023/01/02 04:06:18;;;;;;;0.70;0.70;;;;;;;;;;4972421;28;20178;-76
2023/01/02 04:08:46;;;;;;;0.70;0.70;;;;;;;;;;4972174;28;20658;-76
2023/01/02 04:11:14;;;;;;;0.70;0.70;;;;;;;;;;4972302;28;20229;-76
2023/01/02 04:13:45;;;;;;;0.70;0.70;;;;;;;;;;4971685;28;20217;-75
2023/01/02 04:16:14;;;;;;;0.60;0.60;;;;;;;;;;4972339;28;20546;-76
2023/01/02 04:18:42;;;;;;;0.73;0.73;;;;;;;;;;4972214;28;20245;-76
2023/01/02 04:21:13;;;;;;;0.70;0.70;;;;;;;;;;4974515;28;20689;-76
2023/01/02 04:23:41;;;;;;;0.70;0.70;;;;;;;;;;4975507;28;20182;-76
2023/01/02 04:26:16;;;;;;;0.73;0.73;;;;;;;;;;4975769;28;20545;-75
2023/01/02 04:28:42;;;;;;;0.70;0.70;;;;;;;;;;4975881;28;20665;-75
2023/01/02 04:31:14;;;;;;;0.60;0.60;;;;;;;;;;4976051;28;20205;-75
2023/01/02 04:33:43;;;;;;;0.60;0.60;;;;;;;;;;4975294;28;20660;-76
2023/01/02 04:36:10;;;;;;;0.60;0.60;;;;;;;;;;4975636;28;20182;-75
2023/01/02 04:38:36;;;;;;;0.70;0.70;;;;;;;;;;4975441;28;20186;-75
2023/01/02 04:41:02;;;;;;;0.73;0.73;;;;;;;;;;4975664;28;20626;-75
2023/01/02 04:43:28;;;;;;;0.70;0.70;;;;;;;;;;4975000;28;20595;-75
2023/01/02 04:45:54;;;;;;;0.70;0.70;;;;;;;;;;4975337;28;20244;-76
2023/01/02 04:48:21;;;;;;;0.70;0.70;;;;;;;;;;4975464;28;20376;-76
2023/01/02 04:50:47;;;;;;;0.60;0.60;;;;;;;;;;4975278;28;20284;-75
2023/01/02 04:53:14;;;;;;;0.70;0.70;;;;;;;;;;4974817;28;20174;-74
2023/01/02 04:55:40;;;;;;;0.70;0.70;;;;;;;;;;4975217;28;20185;-74
2023/01/02 04:58:06;;;;;;;0.63;0.63;;;;;;;;;;4975402;28;20212;-75
2023/01/02 05:00:33;;;;;;;0.70;0.70;;;;;;;;;;4975238;28;20542;-74
2023/01/02 05:03:00;;;;;;;0.70;0.70;;;;;;;;;;4974712;28;20271;-74
2023/01/02 05:05:26;;;;;;;0.80;0.80;;;;;;;;;;4975193;28;20185;-75
2023/01/02 05:07:52;;;;;;;0.60;0.60;;;;;;;;;;4975298;28;20181;-75
2023/01/02 05:10:18;;;;;;;0.63;0.63;;;;;;;;;;4975341;28;20174;-75
2023/01/02 05:12:44;;;;;;;0.70;0.70;;;;;;;;;;4974808;28;20606;-75
2023/01/02 05:15:11;;;;;;;0.60;0.60;;;;;;;;;;4975183;28;20181;-75
2023/01/02 05:17:38;;;;;;;0.60;0.60;;;;;;;;;;4975087;28;20178;-75
2023/01/02 05:20:05;;;;;;;0.73;0.73;;;;;;;;;;4974961;28;20627;-74
2023/01/02 05:25:16;;;;;;;0.70;0.70;;;;;;;;;;4973696;28;20196;-75
2023/01/02 05:27:42;;;;;;;0.70;0.70;;;;;;;;;;4973877;28;20186;-76
2023/01/02 05:30:09;;;;;;;0.70;0.70;;;;;;;;;;4974114;28;20177;-75
2023/01/02 05:32:35;;;;;;;0.70;0.70;;;;;;;;;;4973840;28;20264;-75
2023/01/02 05:35:00;;;;;;;0.70;0.70;;;;;;;;;;4974287;28;20222;-75
2023/01/02 05:37:28;;;;;;;0.60;0.60;;;;;;;;;;4974708;28;20189;-75
2023/01/02 05:39:54;;;;;;;0.70;0.70;;;;;;;;;;4974893;28;20273;-76
2023/01/02 05:42:20;;;;;;;0.80;0.80;;;;;;;;;;4974558;28;20265;-75
2023/01/02 05:44:46;;;;;;;0.70;0.70;;;;;;;;;;4974277;28;20182;-75
2023/01/02 05:47:12;;;;;;;0.60;0.60;;;;;;;;;;4974689;28;20273;-76
2023/01/02 05:49:38;;;;;;;0.73;0.73;;;;;;;;;;4974625;28;20205;-75
2023/01/02 05:52:04;;;;;;;0.60;0.60;;;;;;;;;;4974513;28;20189;-76
2023/01/02 05:54:30;;;;;;;0.60;0.60;;;;;;;;;;4974267;28;20265;-75
2023/01/02 05:56:56;;;;;;;0.70;0.70;;;;;;;;;;4974565;28;20185;-75
2023/01/02 05:59:22;;;;;;;0.70;0.70;;;;;;;;;;4974518;28;20189;-75
2023/01/02 06:01:48;;;;;;;0.70;0.70;;;;;;;;;;4973950;28;20267;-76
2023/01/02 06:04:14;;;;;;;0.70;0.70;;;;;;;;;;4974073;28;20624;-75
2023/01/02 06:06:40;;;;;;;0.63;0.63;;;;;;;;;;4974590;28;20634;-76
2023/01/02 06:09:06;;;;;;;0.70;0.70;;;;;;;;;;4974432;28;20178;-75
2023/01/02 06:11:33;;;;;;;0.70;0.70;;;;;;;;;;4974117;28;20259;-76
2023/01/02 06:13:59;;;;;;;0.70;0.70;;;;;;;;;;4973710;28;20189;-76
2023/01/02 06:16:25;;;;;;;0.70;0.70;;;;;;;;;;4974852;28;20185;-75
2023/01/02 06:18:51;;;;;;;0.60;0.60;;;;;;;;;;4974187;28;20201;-76
2023/01/02 06:21:18;;;;;;;0.70;0.70;;;;;;;;;;4973795;28;20226;-75
2023/01/02 06:23:44;;;;;;;0.80;0.80;;;;;;;;;;4973497;28;20228;-75
2023/01/02 06:26:12;;;;;;;0.70;0.70;;;;;;;;;;4973760;28;20665;-74
2023/01/02 06:28:38;;;;;;;0.60;0.60;;;;;;;;;;4973850;28;20366;-74
2023/01/02 06:31:05;;;;;;;0.60;0.60;;;;;;;;;;4973546;28;20244;-74
2023/01/02 06:33:32;;;;;;;0.70;0.70;;;;;;;;;;4973452;28;20186;-75
2023/01/02 06:35:58;;;;;;;0.70;0.70;;;;;;;;;;4973787;28;20178;-73
2023/01/02 06:38:24;;;;;;;0.60;0.60;;;;;;;;;;4973683;28;20173;-74
2023/01/02 06:40:57;;;;;;;0.80;0.80;;;;;;;;;;4973212;28;20620;-73
2023/01/02 06:43:24;;;;;;;0.80;0.80;;;;;;;;;;4972313;28;20189;-73
2023/01/02 06:45:50;;;;;;;0.60;0.60;;;;;;;;;;4973301;28;20178;-73
2023/01/02 06:48:16;;;;;;;0.70;0.70;;;;;;;;;;4973584;28;20178;-72
2023/01/02 06:50:43;;;;;;;0.70;0.70;;;;;;;;;;4973360;28;20573;-76
2023/01/02 06:53:09;;;;;;;0.70;0.70;;;;;;;;;;4972532;28;20188;-75
2023/01/02 06:55:35;;;;;;;0.70;0.70;;;;;;;;;;4973034;28;20181;-75
2023/01/02 06:58:01;;;;;;;0.70;0.70;;;;;;;;;;4973340;28;20545;-75
2023/01/02 07:00:27;;;;;;;0.80;0.80;;;;;;;;;;4973066;28;20197;-76
2023/01/02 07:02:53;;;;;;;0.77;0.77;;;;;;;;;;4973036;28;20249;-76
2023/01/02 07:07:47;;;;;;;0.73;0.73;;;;;;;;;;4955600;29;20224;-79
2023/01/02 07:10:13;;;;;;;0.70;0.70;;;;;;;;;;4957653;29;20269;-79
2023/01/02 07:12:39;;;;;;;0.70;0.70;;;;;;;;;;4938863;29;20190;-79
2023/01/02 07:15:05;;;;;;;0.70;0.70;;;;;;;;;;4938904;29;20179;-80
2023/01/02 07:17:32;;;;;;;0.60;0.60;;;;;;;;;;4938048;29;20659;-79
2023/01/02 07:19:58;;;;;;;0.60;0.60;;;;;;;;;;4938198;29;20536;-80
2023/01/02 07:22:24;;;;;;;0.60;0.60;;;;;;;;;;4936787;29;20226;-77
2023/01/02 07:24:50;;;;;;;0.60;0.60;;;;;;;;;;4935674;29;20179;-77
2023/01/02 07:27:16;;;;;;;0.80;0.80;;;;;;;;;;4936461;29;20194;-76
2023/01/02 07:29:42;;;;;;;0.70;0.70;;;;;;;;;;4936826;29;20180;-77
2023/01/02 07:32:08;;;;;;;0.60;0.60;;;;;;;;;;4936084;29;20218;-76
2023/01/02 07:34:34;;;;;;;0.60;0.60;;;;;;;;;;4934464;29;20176;-76
2023/01/02 07:37:00;;;;;;;0.77;0.77;;;;;;;;;;4935036;29;20179;-76
2023/01/02 07:39:26;;;;;;;0.73;0.73;;;;;;;;;;4935090;29;20609;-77
2023/01/02 07:41:52;;;;;;;0.70;0.70;;;;;;;;;;4934540;29;20214;-76
2023/01/02 07:44:18;;;;;;;0.77;0.77;;;;;;;;;;4934452;29;20591;-75
2023/01/02 07:46:44;;;;;;;0.60;0.60;;;;;;;;;;4934865;29;20671;-76
2023/01/02 07:49:11;;;;;;;0.70;0.70;;;;;;;;;;4934844;29;20629;-76
2023/01/02 07:51:37;;;;;;;0.70;0.70;;;;;;;;;;4934729;29;20199;-76
2023/01/02 07:54:03;;;;;;;0.60;0.60;;;;;;;;;;4935250;29;20270;-77
2023/01/02 07:56:29;;;;;;;0.50;0.50;;;;;;;;;;4938592;29;20206;-77
2023/01/02 07:58:55;;;;;;;0.80;0.80;;;;;;;;;;4938842;29;20175;-76
2023/01/02 08:01:21;;;;;;;0.87;0.87;;;;;;;;;;4938393;29;20703;-76
2023/01/02 08:03:47;;;;;;;0.60;0.60;;;;;;;;;;4937849;29;20179;-76
2023/01/02 08:06:14;;;;;;;0.57;0.57;;;;;;;;;;4945003;29;20208;-76
2023/01/02 08:08:40;;;;;;;0.70;0.70;;;;;;;;;;4957380;29;20178;-76
2023/01/02 08:11:17;;;;;;;0.70;0.70;;;;;;;;;;4957208;28;20581;-77
2023/01/02 08:13:43;;;;;;;0.60;0.60;;;;;;;;;;4956813;29;20186;-77
2023/01/02 08:16:20;;;;;;;0.70;0.70;;;;;;;;;;4957412;29;20230;-77
2023/01/02 08:18:46;;;;;;;0.67;0.67;;;;;;;;;;4957214;28;20669;-77
2023/01/02 08:21:12;;;;;;;0.70;0.70;;;;;;;;;;4957072;28;20225;-76
2023/01/02 08:23:38;;;;;;;0.60;0.60;;;;;;;;;;4956451;29;20564;-76
2023/01/02 08:26:05;;;;;;;0.80;0.80;;;;;;;;;;4957667;29;20178;-76
2023/01/02 08:28:32;;;;;;;0.80;0.80;;;;;;;;;;4957289;29;20193;-76
2023/01/02 08:30:59;;;;;;;0.70;0.70;;;;;;;;;;4956991;28;20226;-75
2023/01/02 08:33:25;;;;;;;0.70;0.70;;;;;;;;;;4956568;29;20238;-78
2023/01/02 08:35:51;;;;;;;0.80;0.80;;;;;;;;;;4957348;29;20628;-77
2023/01/02 08:38:18;;;;;;;0.70;0.70;;;;;;;;;;4957802;29;20568;-78
2023/01/02 08:40:44;;;;;;;0.80;0.80;;;;;;;;;;4957117;28;20249;-77
2023/01/02 08:43:10;;;;;;;0.70;0.70;;;;;;;;;;4956375;29;20600;-78
2023/01/02 08:45:37;;;;;;;0.70;0.70;;;;;;;;;;4956830;29;20569;-78
2023/01/02 08:48:03;;;;;;;0.70;0.70;;;;;;;;;;4957172;29;20273;-77
2023/01/02 08:50:29;;;;;;;0.60;0.60;;;;;;;;;;4956433;28;20330;-78
2023/01/02 08:52:55;;;;;;;0.70;0.70;;;;;;;;;;4955855;29;20187;-78
2023/01/02 08:55:21;;;;;;;0.70;0.70;;;;;;;;;;4956835;29;20205;-78
2023/01/02 08:57:46;;;;;;;0.70;0.70;;;;;;;;;;4957231;29;20181;-77
2023/01/02 09:00:13;;;;;;;0.60;0.60;;;;;;;;;;4956824;28;20201;-77
2023/01/02 09:02:39;;;;;;;0.60;0.60;;;;;;;;;;4955804;29;20218;-78
2023/01/02 09:05:05;;;;;;;0.70;0.70;;;;;;;;;;4956029;28;20178;-78
2023/01/02 09:07:31;;;;;;;0.57;0.57;;;;;;;;;;4955676;29;20313;-78
2023/01/02 09:09:58;;;;;;;0.70;0.70;;;;;;;;;;4956562;29;20175;-77
2023/01/02 09:12:24;;;;;;;0.53;0.53;;;;;;;;;;4958439;28;20202;-77
2023/01/02 09:14:50;;;;;;;0.70;0.70;;;;;;;;;;4956581;29;20269;-76
2023/01/02 09:17:30;;;;;;;0.60;0.60;;;;;;;;;;4955996;29;20273;-78
2023/01/02 09:19:56;;;;;;;0.60;0.60;;;;;;;;;;4955957;29;20266;-78
2023/01/02 09:22:22;;;;;;;0.40;0.40;;;;;;;;;;4955576;28;20313;-76
2023/01/02 09:24:48;;;;;;;0.53;0.53;;;;;;;;;;4955579;29;20186;-76
2023/01/02 09:27:14;;;;;;;0.70;0.70;;;;;;;;;;4956039;29;20202;-76
2023/01/02 09:29:40;;;;;;;0.50;0.50;;;;;;;;;;4955911;29;20221;-77
2023/01/02 09:32:06;;;;;;;0.50;0.50;;;;;;;;;;4956807;28;20687;-76
2023/01/02 09:34:32;;;;;;;0.60;0.60;;;;;;;;;;4955592;29;20639;-77
2023/01/02 09:36:58;;;;;;;0.40;0.40;;;;;;;;;;4955424;29;20178;-76
2023/01/02 09:39:24;;;;;;;0.50;0.50;;;;;;;;;;4955630;29;20194;-76
2023/01/02 09:41:52;;;;;;;0.50;0.50;;;;;;;;;;4955776;28;20305;-77
2023/01/02 09:44:18;;;;;;;0.50;0.50;;;;;;;;;;4955167;29;20200;-78
2023/01/02 09:46:50;;;;;;;0.50;0.50;;;;;;;;;;4955638;29;20191;-77
2023/01/02 09:49:19;;;;;;;0.40;0.40;;;;;;;;;;4956100;29;20304;-78
2023/01/02 09:51:45;;;;;;;0.43;0.43;;;;;;;;;;4956825;28;20201;-77
2023/01/02 09:54:18;;;;;;;0.50;0.50;;;;;;;;;;4956416;29;20178;-77
2023/01/02 09:56:47;;;;;;;0.43;0.43;;;;;;;;;;4956968;29;20666;-77
2023/01/02 09:59:28;;;;;;;0.47;0.47;;;;;;;;;;4958332;29;20202;-78
2023/01/02 10:02:06;;;;;;;0.53;0.53;;;;;;;;;;4957056;28;20232;-77
2023/01/02 10:04:41;;;;;;;0.50;0.50;;;;;;;;;;4957906;29;20186;-77
2023/01/02 10:07:15;;;;;;;0.50;0.50;;;;;;;;;;4957720;29;20204;-77
2023/01/02 10:09:41;;;;;;;0.50;0.50;;;;;;;;;;4955727;29;20514;-77
2023/01/02 10:12:14;;;;;;;0.50;0.50;;;;;;;;;;4955013;28;20691;-77
2023/01/02 10:14:43;;;;;;;0.50;0.50;;;;;;;;;;4954904;29;20186;-79
2023/01/02 10:17:10;;;;;;;0.50;0.50;;;;;;;;;;4954494;28;20179;-78
2023/01/02 10:19:51;;;;;;;0.43;0.43;;;;;;;;;;4955129;29;20174;-78
2023/01/02 10:22:19;;;;;;;0.50;0.50;;;;;;;;;;4955185;28;20261;-77
2023/01/02 10:24:51;;;;;;;0.47;0.47;;;;;;;;;;4954367;29;20632;-78
2023/01/02 10:27:20;;;;;;;0.43;0.43;;;;;;;;;;4954926;29;20193;-78
2023/01/02 10:29:52;;;;;;;0.40;0.40;;;;;;;;;;4954639;29;20181;-78
2023/01/02 10:32:20;;;;;;;0.40;0.40;;;;;;;;;;4954801;28;20285;-78
2023/01/02 10:35:03;;;;;;;0.43;0.43;;;;;;;;;;4956732;29;20273;-78
2023/01/02 10:37:29;;;;;;;0.40;0.40;;;;;;;;;;4954803;29;20258;-77
2023/01/02 10:39:55;;;;;;;0.30;0.30;;;;;;;;;;4954527;29;20187;-77
2023/01/02 10:42:21;;;;;;;0.30;0.30;;;;;;;;;;4954274;28;20275;-77
2023/01/02 10:44:47;;;;;;;0.47;0.47;;;;;;;;;;4954009;29;20186;-77
2023/01/02 10:47:20;;;;;;;0.30;0.30;;;;;;;;;;4955116;29;20193;-77
2023/01/02 10:49:47;;;;;;;0.30;0.30;;;;;;;;;;4959048;28;20678;-78
2023/01/02 10:52:13;;;;;;;0.40;0.40;;;;;;;;;;4956427;28;20194;-78
2023/01/02 10:54:49;;;;;;;0.30;0.30;;;;;;;;;;4954913;29;20538;-77
2023/01/02 10:57:19;;;;;;;0.30;0.30;;;;;;;;;;4956564;29;20178;-77
2023/01/02 10:59:45;;;;;;;0.30;0.30;;;;;;;;;;4955429;29;20729;-76
2023/01/02 11:02:26;;;;;;;0.30;0.30;;;;;;;;;;4955565;28;20702;-77
2023/01/02 11:04:52;;;;;;;0.40;0.40;;;;;;;;;;4955132;29;20655;-76
2023/01/02 11:07:25;;;;;;;0.40;0.40;;;;;;;;;;4956070;29;20329;-76
2023/01/02 11:09:55;;;;;;;0.30;0.30;;;;;;;;;;4954065;29;20202;-77
2023/01/02 11:12:21;;;;;;;0.50;0.50;;;;;;;;;;4953943;28;20199;-77
2023/01/02 11:14:47;;;;;;;0.30;0.30;;;;;;;;;;4960763;29;20282;-77
2023/01/02 11:17:13;;;;;;;0.40;0.40;;;;;;;;;;4964840;29;20202;-77
2023/01/02 11:19:44;;;;;;;0.40;0.40;;;;;;;;;;4965253;29;20174;-76
2023/01/02 11:22:11;;;;;;;0.40;0.40;;;;;;;;;;4962347;28;20214;-77
2023/01/02 11:24:46;;;;;;;0.40;0.40;;;;;;;;;;4953364;29;20179;-77
2023/01/02 11:27:11;;;;;;;0.30;0.30;;;;;;;;;;4954019;29;20280;-77
2023/01/02 11:29:37;;;;;;;0.40;0.40;;;;;;;;;;4953570;28;20209;-76
2023/01/02 11:32:04;;;;;;;0.30;0.30;;;;;;;;;;4953493;28;20202;-77
2023/01/02 11:34:30;;;;;;;0.47;0.47;;;;;;;;;;4953121;29;20201;-76
2023/01/02 11:37:13;;;;;;;0.40;0.40;;;;;;;;;;4953385;29;20541;-77
2023/01/02 11:39:40;;;;;;;0.40;0.40;;;;;;;;;;4954059;29;20175;-77
2023/01/02 11:44:56;;;;;;;0.40;0.40;;;;;;;;;;4953442;29;20197;-77
2023/01/02 11:47:32;;;;;;;0.30;0.30;;;;;;;;;;4953688;29;20249;-77
2023/01/02 11:49:58;;;;;;;0.30;0.30;;;;;;;;;;4953824;29;20186;-77
2023/01/02 11:52:28;;;;;;;0.40;0.40;;;;;;;;;;4953710;28;20199;-77
2023/01/02 11:54:59;;;;;;;0.40;0.40;;;;;;;;;;4953362;29;20201;-77
2023/01/02 11:57:38;;;;;;;0.50;0.50;;;;;;;;;;4961932;29;20178;-77
2023/01/02 12:00:06;;;;;;;0.40;0.40;;;;;;;;;;4954861;29;20240;-78
2023/01/02 12:02:39;;;;;;;0.37;0.37;;;;;;;;;;4962493;29;20221;-77
2023/01/02 12:05:10;;;;;;;0.40;0.40;;;;;;;;;;4970489;28;20235;-77
2023/01/02 12:07:46;;;;;;;0.33;0.33;;;;;;;;;;4973782;29;20250;-77
2023/01/02 12:10:18;;;;;;;0.40;0.40;;;;;;;;;;4976888;28;20241;-77
2023/01/02 12:12:51;;;;;;;0.47;0.47;;;;;;;;;;4953958;29;20464;-77
2023/01/02 12:15:43;;;;;;;0.40;0.40;;;;;;;;;;4953999;29;20188;-78
2023/01/02 12:18:21;;;;;;;0.40;0.40;;;;;;;;;;4953923;29;20201;-77
2023/01/02 12:21:03;;;;;;;0.40;0.40;;;;;;;;;;4953239;28;20202;-77
2023/01/02 12:23:37;;;;;;;0.40;0.40;;;;;;;;;;4953034;29;20690;-77
2023/01/02 12:26:07;;;;;;;0.40;0.40;;;;;;;;;;4953590;29;20178;-77
2023/01/02 12:28:42;;;;;;;0.40;0.40;;;;;;;;;;4953666;29;20237;-77
2023/01/02 12:31:07;;;;;;;0.40;0.40;;;;;;;;;;4953785;28;20206;-78
2023/01/02 12:33:42;;;;;;;0.40;0.40;;;;;;;;;;4952953;29;20206;-77
2023/01/02 12:36:10;;;;;;;0.40;0.40;;;;;;;;;;4953435;29;20179;-77
2023/01/02 12:38:55;;;;;;;0.40;0.40;;;;;;;;;;4953690;29;20199;-77
2023/01/02 12:41:21;;;;;;;0.40;0.40;;;;;;;;;;4954963;28;20573;-77
2023/01/02 12:44:06;;;;;;;0.40;0.40;;;;;;;;;;4956765;29;20635;-77
2023/01/02 12:46:55;;;;;;;0.40;0.40;;;;;;;;;;4957530;29;20550;-77
2023/01/02 12:49:41;;;;;;;0.40;0.40;;;;;;;;;;4957775;28;20183;-77
2023/01/02 12:52:24;;;;;;;0.30;0.30;;;;;;;;;;4959356;28;20837;-77
2023/01/02 12:54:50;;;;;;;0.30;0.30;;;;;;;;;;4959759;29;20191;-77
2023/01/02 12:57:32;;;;;;;0.40;0.40;;;;;;;;;;4959429;29;20194;-77
2023/01/02 12:59:58;;;;;;;0.40;0.40;;;;;;;;;;4954610;29;20644;-78
2023/01/02 13:02:30;;;;;;;0.40;0.40;;;;;;;;;;4956280;28;20225;-77
2023/01/02 13:05:08;;;;;;;0.30;0.30;;;;;;;;;;4956100;28;20217;-77
2023/01/02 13:07:40;;;;;;;0.30;0.30;;;;;;;;;;4953534;28;20205;-77
2023/01/02 13:10:07;;;;;;;0.33;0.33;;;;;;;;;;4951657;28;20612;-77
2023/01/02 13:12:34;;;;;;;0.40;0.40;;;;;;;;;;4945402;28;20187;-77
2023/01/02 13:15:17;;;;;;;0.40;0.40;;;;;;;;;;4943226;29;20178;-77
2023/01/02 13:17:52;;;;;;;0.50;0.50;;;;;;;;;;4940033;29;20274;-76
2023/01/02 13:20:37;;;;;;;0.40;0.40;;;;;;;;;;4939340;28;20194;-76
2023/01/02 13:23:09;;;;;;;0.50;0.50;;;;;;;;;;4955800;29;20249;-76
2023/01/02 13:25:45;;;;;;;0.40;0.40;;;;;;;;;;4955622;29;20174;-76
2023/01/02 13:28:12;;;;;;;0.50;0.50;;;;;;;;;;4955889;29;20178;-76
2023/01/02 13:30:44;;;;;;;0.40;0.40;;;;;;;;;;4955608;28;20668;-76
2023/01/02 13:33:29;;;;;;;0.33;0.33;;;;;;;;;;4955182;29;20182;-76
2023/01/02 13:35:55;;;;;;;0.50;0.50;;;;;;;;;;4951309;29;20195;-76
2023/01/02 13:38:22;;;;;;;0.50;0.50;;;;;;;;;;4935646;29;20203;-76
2023/01/02 13:40:53;;;;;;;0.40;0.40;;;;;;;;;;4936124;29;20687;-76
2023/01/02 13:43:23;;;;;;;0.40;0.40;;;;;;;;;;4953335;29;20322;-76
2023/01/02 13:45:51;;;;;;;0.40;0.40;;;;;;;;;;4943094;29;20191;-76
2023/01/02 13:48:23;;;;;;;0.50;0.50;;;;;;;;;;4941076;29;20273;-76
2023/01/02 13:50:57;;;;;;;0.40;0.40;;;;;;;;;;4955098;28;20213;-76
2023/01/02 13:53:32;;;;;;;0.43;0.43;;;;;;;;;;4954504;28;20266;-76
2023/01/02 13:56:11;;;;;;;0.40;0.40;;;;;;;;;;4955052;29;20678;-76
2023/01/02 13:58:46;;;;;;;0.40;0.40;;;;;;;;;;4955135;29;20186;-76
2023/01/02 14:01:21;;;;;;;0.50;0.50;;;;;;;;;;4954810;28;20202;-76
2023/01/02 14:03:48;;;;;;;0.50;0.50;;;;;;;;;;4954661;29;20186;-76
2023/01/02 14:06:27;;;;;;;0.50;0.50;;;;;;;;;;4954925;29;20278;-76
2023/01/02 14:09:05;;;;;;;0.40;0.40;;;;;;;;;;4954661;29;20186;-76
2023/01/02 14:11:47;;;;;;;0.40;0.40;;;;;;;;;;4954641;28;20288;-77
2023/01/02 14:14:19;;;;;;;0.47;0.47;;;;;;;;;;4954449;29;20191;-76
2023/01/02 14:16:45;;;;;;;0.40;0.40;;;;;;;;;;4954712;29;20193;-76
2023/01/02 14:19:14;;;;;;;0.50;0.50;;;;;;;;;;4954706;29;20206;-76
2023/01/02 14:21:43;;;;;;;0.40;0.40;;;;;;;;;;4954440;28;20215;-76
2023/01/02 14:24:22;;;;;;;0.40;0.40;;;;;;;;;;4953574;29;20714;-76
2023/01/02 14:26:51;;;;;;;0.50;0.50;;;;;;;;;;4954708;29;20186;-77
2023/01/02 14:29:18;;;;;;;0.40;0.40;;;;;;;;;;4954408;29;20186;-76
2023/01/02 14:31:44;;;;;;;0.40;0.40;;;;;;;;;;4954311;28;20210;-76
2023/01/02 14:34:12;;;;;;;0.50;0.50;;;;;;;;;;4953969;29;20178;-76
2023/01/02 14:36:42;;;;;;;0.40;0.40;;;;;;;;;;4953947;29;20310;-76
2023/01/02 14:39:11;;;;;;;0.43;0.43;;;;;;;;;;4954344;29;20185;-77
2023/01/02 14:44:54;;;;;;;0.40;0.40;;;;;;;;;;4953649;29;20339;-77
2023/01/02 14:47:46;;;;;;;0.60;0.60;;;;;;;;;;4954175;28;20187;-77
2023/01/02 14:50:15;;;;;;;0.47;0.47;;;;;;;;;;4952090;28;20321;-77
2023/01/02 14:52:43;;;;;;;0.40;0.40;;;;;;;;;;4953639;29;20182;-76
2023/01/02 14:55:17;;;;;;;0.50;0.50;;;;;;;;;;4953836;29;20205;-79
2023/01/02 14:57:47;;;;;;;0.50;0.50;;;;;;;;;;4954489;29;20181;-78
2023/01/02 15:00:28;;;;;;;0.40;0.40;;;;;;;;;;4956221;28;20210;-78
2023/01/02 15:02:58;;;;;;;0.40;0.40;;;;;;;;;;4955671;29;20225;-77
2023/01/02 15:05:47;;;;;;;0.30;0.30;;;;;;;;;;4954497;29;20210;-77
2023/01/02 15:08:14;;;;;;;0.50;0.50;;;;;;;;;;4954070;29;20189;-77